Time;durP1;ratioP1;P1;durP2;ratioP2;P2;SDS_P1;SDS_P2;PMS_P1;PMS_P2;Temp;Humidity;BMP_temperature;BMP_pressure;BME280_temperature;BME280_humidity;BME280_pressure;Samples;Min_cycle;Max_cycle;Signal;HPM_P1;HPM_P2
2022/10/29 00:00:22;;;;;;;;;;;20.00;78.40;;;;;;4492550;32;20350;-67
2022/10/29 00:02:48;;;;;;;;;;;20.00;78.40;;;;;;4492507;32;19962;-67
2022/10/29 00:05:13;;;;;;;;;;;20.00;78.50;;;;;;4492162;32;20406;-68
2022/10/29 00:07:39;;;;;;;;;;;20.00;78.50;;;;;;4492205;32;20358;-68
2022/10/29 00:10:05;;;;;;;;;;;19.90;78.50;;;;;;4492368;32;19966;-67
2022/10/29 00:12:31;;;;;;;;;;;19.90;78.50;;;;;;4492478;32;20027;-68
2022/10/29 00:14:56;;;;;;;;;;;19.90;78.40;;;;;;4492471;32;19974;-67
2022/10/29 00:17:22;;;;;;;;;;;19.90;78.50;;;;;;4492650;32;20104;-67
2022/10/29 00:19:47;;;;;;;;;;;19.90;78.50;;;;;;4492619;32;19978;-67
2022/10/29 00:22:13;;;;;;;;;;;19.90;78.40;;;;;;4479529;32;19970;-68
2022/10/29 00:24:40;;;;;;;;;;;19.90;78.40;;;;;;4492093;32;19981;-67
2022/10/29 00:27:06;;;;;;;;;;;19.80;79.20;;;;;;4492226;31;19981;-67
2022/10/29 00:29:31;;;;;;;;;;;19.90;78.40;;;;;;4495523;31;19962;-67
2022/10/29 00:31:57;;;;;;;;;;;19.90;78.30;;;;;;4495307;31;20157;-68
2022/10/29 00:34:23;;;;;;;;;;;19.90;78.30;;;;;;4495543;31;20103;-67
2022/10/29 00:36:48;;;;;;;;;;;19.90;78.30;;;;;;4495479;31;19981;-67
2022/10/29 00:39:14;;;;;;;;;;;19.90;78.30;;;;;;4495229;31;20116;-67
2022/10/29 00:41:40;;;;;;;;;;;19.90;78.30;;;;;;4495193;31;20074;-66
2022/10/29 00:44:19;;;;;;;;;;;19.80;79.10;;;;;;4495122;31;20375;-67
2022/10/29 00:46:46;;;;;;;;;;;19.90;78.30;;;;;;4495167;31;20304;-67
2022/10/29 00:49:14;;;;;;;;;;;19.80;78.20;;;;;;4495122;31;20429;-67
2022/10/29 00:51:40;;;;;;;;;;;19.80;78.20;;;;;;4494855;31;20075;-67
2022/10/29 00:54:07;;;;;;;;;;;19.80;78.20;;;;;;4495127;31;20406;-67
2022/10/29 00:56:35;;;;;;;;;;;19.80;78.20;;;;;;4494752;31;19991;-67
2022/10/29 00:59:01;;;;;;;;;;;19.80;78.20;;;;;;4495233;31;20032;-67
2022/10/29 01:01:27;;;;;;;;;;;19.80;78.10;;;;;;4494968;31;20382;-68
2022/10/29 01:03:54;;;;;;;;;;;19.80;78.20;;;;;;4494910;31;19980;-67
2022/10/29 01:06:20;;;;;;;;;;;19.80;79.00;;;;;;4495114;31;20005;-67
2022/10/29 01:08:46;;;;;;;;;;;19.80;78.10;;;;;;4493870;31;19986;-67
2022/10/29 01:11:27;;;;;;;;;;;19.80;78.10;;;;;;4494747;31;20288;-67
2022/10/29 01:14:16;;;;;;;;;;;19.80;78.10;;;;;;4494757;31;20382;-67
2022/10/29 01:16:42;;;;;;;;;;;19.80;78.10;;;;;;4495097;31;20016;-67
2022/10/29 01:19:26;;;;;;;;;;;19.80;78.10;;;;;;4494634;31;20111;-67
2022/10/29 01:21:54;;;;;;;;;;;19.80;78.10;;;;;;4494209;31;20055;-67
2022/10/29 01:24:26;;;;;;;;;;;19.70;78.00;;;;;;4494837;31;19981;-68
2022/10/29 01:26:57;;;;;;;;;;;19.70;78.00;;;;;;4494644;31;19981;-67
2022/10/29 01:29:23;;;;;;;;;;;19.70;78.00;;;;;;4494458;31;20091;-67
2022/10/29 01:31:53;;;;;;;;;;;19.70;78.00;;;;;;4494746;31;20455;-67
2022/10/29 01:34:45;;;;;;;;;;;19.70;78.00;;;;;;4494701;31;19993;-67
2022/10/29 01:37:11;;;;;;;;;;;19.70;77.90;;;;;;4492113;31;19988;-68
2022/10/29 01:39:41;;;;;;;;;;;19.70;77.90;;;;;;4494235;31;19969;-67
2022/10/29 01:42:12;;;;;;;;;;;19.70;77.90;;;;;;4494403;31;19965;-68
2022/10/29 01:44:44;;;;;;;;;;;19.70;77.90;;;;;;4494258;31;19989;-67
2022/10/29 01:47:19;;;;;;;;;;;19.70;77.80;;;;;;4494246;31;20016;-67
2022/10/29 01:49:50;;;;;;;;;;;19.70;77.80;;;;;;4494175;31;19978;-68
2022/10/29 01:52:17;;;;;;;;;;;19.70;77.80;;;;;;4494276;31;20031;-68
2022/10/29 01:54:45;;;;;;;;;;;19.70;77.80;;;;;;4493954;31;19993;-67
2022/10/29 01:57:28;;;;;;;;;;;19.70;77.70;;;;;;4494064;31;20522;-67
2022/10/29 01:59:55;;;;;;;;;;;19.70;77.70;;;;;;4494389;31;20314;-67
2022/10/29 02:02:27;;;;;;;;;;;19.70;77.70;;;;;;4494024;31;19997;-67
2022/10/29 02:04:52;;;;;;;;;;;19.70;77.70;;;;;;4493650;31;20175;-67
2022/10/29 02:07:27;;;;;;;;;;;19.70;77.60;;;;;;4494109;31;19986;-67
2022/10/29 02:10:16;;;;;;;;;;;19.70;77.60;;;;;;4493545;31;20104;-67
2022/10/29 02:12:46;;;;;;;;;;;19.60;77.60;;;;;;4487532;31;20017;-68
2022/10/29 02:15:16;;;;;;;;;;;19.60;77.60;;;;;;4493817;31;20082;-67
2022/10/29 02:17:42;;;;;;;;;;;19.60;77.60;;;;;;4493554;31;20104;-67
2022/10/29 02:20:09;;;;;;;;;;;19.60;77.60;;;;;;4493468;31;19962;-67
2022/10/29 02:22:35;;;;;;;;;;;19.60;77.60;;;;;;4493413;31;20413;-67
2022/10/29 02:25:02;;;;;;;;;;;19.60;77.50;;;;;;4493634;31;19989;-67
2022/10/29 02:27:28;;;;;;;;;;;19.60;77.50;;;;;;4493621;31;20331;-67
2022/10/29 02:29:54;;;;;;;;;;;19.60;78.30;;;;;;4493482;31;19961;-68
2022/10/29 02:32:20;;;;;;;;;;;19.60;77.60;;;;;;4493487;31;20445;-67
2022/10/29 02:34:45;;;;;;;;;;;19.60;77.50;;;;;;4493736;31;20383;-67
2022/10/29 02:37:11;;;;;;;;;;;19.60;77.50;;;;;;4493661;31;20082;-67
2022/10/29 02:39:36;;;;;;;;;;;19.60;77.50;;;;;;4493127;31;20009;-67
2022/10/29 02:42:02;;;;;;;;;;;19.60;77.50;;;;;;4493360;31;20013;-68
2022/10/29 02:44:28;;;;;;;;;;;19.60;77.50;;;;;;4493144;31;19983;-68
2022/10/29 02:46:53;;;;;;;;;;;19.60;77.40;;;;;;4493271;31;20318;-67
2022/10/29 02:49:19;;;;;;;;;;;19.60;77.40;;;;;;4493463;31;20311;-67
2022/10/29 02:51:45;;;;;;;;;;;19.60;77.40;;;;;;4492650;31;20103;-67
2022/10/29 02:54:10;;;;;;;;;;;19.60;77.50;;;;;;4492982;31;19989;-67
2022/10/29 02:56:36;;;;;;;;;;;19.60;77.50;;;;;;4492930;31;20111;-67
2022/10/29 02:59:02;;;;;;;;;;;19.60;77.40;;;;;;4493230;31;20005;-67
2022/10/29 03:01:27;;;;;;;;;;;19.60;77.40;;;;;;4493114;31;20005;-67
2022/10/29 03:03:53;;;;;;;;;;;19.60;77.40;;;;;;4493073;31;19974;-67
2022/10/29 03:06:19;;;;;;;;;;;19.50;77.40;;;;;;4492711;31;19974;-68
2022/10/29 03:08:45;;;;;;;;;;;19.60;77.40;;;;;;4492968;31;19977;-67
2022/10/29 03:11:11;;;;;;;;;;;19.50;77.30;;;;;;4492739;31;19965;-67
2022/10/29 03:13:36;;;;;;;;;;;19.50;77.30;;;;;;4492713;31;20009;-67
2022/10/29 03:16:02;;;;;;;;;;;19.50;77.30;;;;;;4492958;31;20150;-67
2022/10/29 03:18:28;;;;;;;;;;;19.50;77.30;;;;;;4492959;31;20024;-67
2022/10/29 03:20:54;;;;;;;;;;;19.50;77.30;;;;;;4492905;31;20092;-67
2022/10/29 03:23:20;;;;;;;;;;;19.50;77.30;;;;;;4492625;31;20006;-68
2022/10/29 03:25:51;;;;;;;;;;;19.50;77.30;;;;;;4492873;31;19981;-67
2022/10/29 03:28:18;;;;;;;;;;;19.50;77.20;;;;;;4492526;31;19992;-67
2022/10/29 03:30:44;;;;;;;;;;;19.50;77.30;;;;;;4492983;31;19985;-67
2022/10/29 03:33:09;;;;;;;;;;;19.50;77.30;;;;;;4492737;31;20339;-67
2022/10/29 03:35:35;;;;;;;;;;;19.50;77.20;;;;;;4492860;31;19961;-67
2022/10/29 03:38:00;;;;;;;;;;;19.50;77.30;;;;;;4492925;31;20115;-67
2022/10/29 03:40:26;;;;;;;;;;;19.50;78.10;;;;;;4492661;31;19969;-67
2022/10/29 03:42:52;;;;;;;;;;;19.50;77.20;;;;;;4492608;31;20047;-68
2022/10/29 03:45:17;;;;;;;;;;;19.50;77.20;;;;;;4492599;31;19980;-68
2022/10/29 03:47:43;;;;;;;;;;;19.40;77.20;;;;;;4492643;31;20170;-67
2022/10/29 03:50:09;;;;;;;;;;;19.40;77.20;;;;;;4492774;32;19958;-67
2022/10/29 03:52:35;;;;;;;;;;;19.40;77.10;;;;;;4492534;32;20054;-67
2022/10/29 03:55:00;;;;;;;;;;;19.40;77.20;;;;;;4493074;32;20492;-68
2022/10/29 03:57:26;;;;;;;;;;;19.40;77.20;;;;;;4492613;32;20112;-67
2022/10/29 03:59:52;;;;;;;;;;;19.40;77.10;;;;;;4492305;32;19992;-67
2022/10/29 04:02:18;;;;;;;;;;;19.40;77.20;;;;;;4494319;31;20311;-67
2022/10/29 04:04:43;;;;;;;;;;;19.40;77.20;;;;;;4495737;31;19969;-67
2022/10/29 04:07:10;;;;;;;;;;;19.40;77.20;;;;;;4495822;31;20100;-67
2022/10/29 04:09:36;;;;;;;;;;;19.40;77.10;;;;;;4495675;31;19973;-67
2022/10/29 04:12:02;;;;;;;;;;;19.40;77.10;;;;;;4495905;31;19976;-67
2022/10/29 04:14:27;;;;;;;;;;;19.40;77.90;;;;;;4495799;31;19988;-67
2022/10/29 04:16:53;;;;;;;;;;;19.40;77.90;;;;;;4495287;31;19966;-67
2022/10/29 04:19:19;;;;;;;;;;;19.40;77.10;;;;;;4495789;31;19980;-67
2022/10/29 04:21:44;;;;;;;;;;;19.40;77.10;;;;;;4495186;31;20303;-67
2022/10/29 04:24:10;;;;;;;;;;;19.40;77.00;;;;;;4495394;31;20060;-67
2022/10/29 04:26:36;;;;;;;;;;;19.40;77.10;;;;;;4495481;31;20019;-67
2022/10/29 04:29:02;;;;;;;;;;;19.40;77.00;;;;;;4495543;31;20010;-67
2022/10/29 04:31:28;;;;;;;;;;;19.40;77.10;;;;;;4495627;31;19970;-67
2022/10/29 04:33:54;;;;;;;;;;;19.40;77.00;;;;;;4495322;31;19973;-67
2022/10/29 04:36:19;;;;;;;;;;;19.30;76.90;;;;;;4481080;31;19989;-67
2022/10/29 04:38:45;;;;;;;;;;;19.40;77.00;;;;;;4495518;31;20399;-67
2022/10/29 04:41:11;;;;;;;;;;;19.30;76.90;;;;;;4495312;31;20424;-67
2022/10/29 04:43:36;;;;;;;;;;;19.40;77.00;;;;;;4480773;31;20027;-67
2022/10/29 04:46:02;;;;;;;;;;;19.30;76.90;;;;;;4495225;31;19977;-67
2022/10/29 04:48:28;;;;;;;;;;;19.30;76.90;;;;;;4494922;31;19961;-67
2022/10/29 04:50:54;;;;;;;;;;;19.30;76.90;;;;;;4495235;31;19988;-67
2022/10/29 04:53:20;;;;;;;;;;;19.30;76.90;;;;;;4494795;31;19998;-67
2022/10/29 04:55:46;;;;;;;;;;;19.30;76.90;;;;;;4495090;31;19982;-67
2022/10/29 04:58:16;;;;;;;;;;;19.30;76.90;;;;;;4494704;31;20046;-67
2022/10/29 05:00:42;;;;;;;;;;;19.30;76.90;;;;;;4494968;31;19970;-67
2022/10/29 05:03:08;;;;;;;;;;;19.30;76.90;;;;;;4494929;31;19976;-67
2022/10/29 05:05:35;;;;;;;;;;;19.30;76.90;;;;;;4494824;31;20432;-67
2022/10/29 05:08:01;;;;;;;;;;;19.30;76.80;;;;;;4495016;31;20002;-67
2022/10/29 05:10:29;;;;;;;;;;;19.30;76.80;;;;;;4494986;31;20051;-67
2022/10/29 05:12:55;;;;;;;;;;;19.30;76.80;;;;;;4494111;31;19997;-67
2022/10/29 05:15:21;;;;;;;;;;;19.30;76.80;;;;;;4494680;31;20015;-67
2022/10/29 05:17:47;;;;;;;;;;;19.30;76.80;;;;;;4494867;31;20367;-67
2022/10/29 05:20:13;;;;;;;;;;;19.30;76.80;;;;;;4494663;31;20407;-68
2022/10/29 05:22:38;;;;;;;;;;;19.30;76.80;;;;;;4494297;31;20063;-67
2022/10/29 05:25:04;;;;;;;;;;;19.30;76.70;;;;;;4494591;31;20055;-67
2022/10/29 05:27:30;;;;;;;;;;;19.30;76.80;;;;;;4494799;31;20533;-67
2022/10/29 05:29:56;;;;;;;;;;;19.30;76.70;;;;;;4494448;31;19989;-67
2022/10/29 05:32:22;;;;;;;;;;;19.30;76.80;;;;;;4494466;31;20299;-67
2022/10/29 05:34:48;;;;;;;;;;;19.20;76.70;;;;;;4494666;31;20280;-67
2022/10/29 05:37:13;;;;;;;;;;;19.20;76.60;;;;;;4494672;31;19962;-68
2022/10/29 05:39:39;;;;;;;;;;;19.20;76.60;;;;;;4494387;31;20024;-67
2022/10/29 05:42:05;;;;;;;;;;;19.20;76.60;;;;;;4494297;31;19966;-67
2022/10/29 05:44:30;;;;;;;;;;;19.20;76.70;;;;;;4494258;31;20452;-67
2022/10/29 05:46:56;;;;;;;;;;;19.20;76.60;;;;;;4494022;31;19965;-67
2022/10/29 05:49:22;;;;;;;;;;;19.20;76.60;;;;;;4494128;31;20070;-67
2022/10/29 05:51:48;;;;;;;;;;;19.20;76.60;;;;;;4494033;31;20000;-67
2022/10/29 05:54:13;;;;;;;;;;;19.20;76.60;;;;;;4494129;31;19969;-67
2022/10/29 05:56:39;;;;;;;;;;;19.20;76.50;;;;;;4494129;31;20371;-67
2022/10/29 05:59:05;;;;;;;;;;;19.20;76.60;;;;;;4494064;31;19958;-67
2022/10/29 06:01:30;;;;;;;;;;;19.30;76.60;;;;;;4479768;31;20018;-67
2022/10/29 06:03:56;;;;;;;;;;;19.20;76.50;;;;;;4493970;31;19977;-67
2022/10/29 06:06:22;;;;;;;;;;;19.20;76.50;;;;;;4493857;31;20465;-68
2022/10/29 06:08:48;;;;;;;;;;;19.20;76.50;;;;;;4494049;31;20437;-67
2022/10/29 06:11:13;;;;;;;;;;;19.20;76.50;;;;;;4494112;31;20402;-68
2022/10/29 06:13:39;;;;;;;;;;;19.20;76.50;;;;;;4494114;31;19978;-67
2022/10/29 06:16:05;;;;;;;;;;;19.20;76.50;;;;;;4493863;31;19981;-67
2022/10/29 06:18:31;;;;;;;;;;;19.20;76.50;;;;;;4493786;31;20006;-67
2022/10/29 06:20:58;;;;;;;;;;;19.20;76.50;;;;;;4493447;31;19980;-67
2022/10/29 06:23:24;;;;;;;;;;;19.20;76.50;;;;;;4493386;31;19969;-67
2022/10/29 06:25:49;;;;;;;;;;;19.20;76.50;;;;;;4492869;31;20055;-67
2022/10/29 06:28:17;;;;;;;;;;;19.20;76.50;;;;;;4479207;31;19984;-64
2022/10/29 06:30:48;;;;;;;;;;;19.20;76.40;;;;;;4493810;31;19985;-67
2022/10/29 06:33:14;;;;;;;;;;;19.20;76.40;;;;;;4493540;31;19978;-67
2022/10/29 06:35:39;;;;;;;;;;;19.20;76.60;;;;;;4493458;31;19973;-67
2022/10/29 06:38:05;;;;;;;;;;;19.20;76.50;;;;;;4493405;31;20087;-67
2022/10/29 06:40:31;;;;;;;;;;;19.20;76.60;;;;;;4493373;31;20071;-67
2022/10/29 06:42:57;;;;;;;;;;;19.20;76.90;;;;;;4493394;31;19966;-67
2022/10/29 06:45:23;;;;;;;;;;;19.20;77.20;;;;;;4493446;31;20054;-67
2022/10/29 06:47:49;;;;;;;;;;;19.20;77.00;;;;;;4493327;31;19973;-67
2022/10/29 06:50:14;;;;;;;;;;;19.20;77.20;;;;;;4493452;31;20118;-67
2022/10/29 06:52:40;;;;;;;;;;;19.20;77.30;;;;;;4493431;31;20010;-67
2022/10/29 06:55:06;;;;;;;;;;;19.20;77.40;;;;;;4493177;31;20406;-67
2022/10/29 06:57:32;;;;;;;;;;;19.20;77.70;;;;;;4493197;31;20382;-67
2022/10/29 06:59:57;;;;;;;;;;;19.30;77.80;;;;;;4493202;31;19988;-67
2022/10/29 07:02:23;;;;;;;;;;;19.30;78.40;;;;;;4492847;31;20083;-68
2022/10/29 07:04:49;;;;;;;;;;;19.20;78.00;;;;;;4492847;31;20091;-67
2022/10/29 07:07:14;;;;;;;;;;;19.20;78.20;;;;;;4493239;31;19969;-67
2022/10/29 07:09:41;;;;;;;;;;;19.20;78.20;;;;;;4493215;31;20422;-67
2022/10/29 07:12:07;;;;;;;;;;;19.30;78.60;;;;;;4493079;31;20033;-67
2022/10/29 07:14:33;;;;;;;;;;;19.20;78.70;;;;;;4493238;31;20119;-65
2022/10/29 07:16:59;;;;;;;;;;;19.20;78.50;;;;;;4493262;31;19999;-67
2022/10/29 07:19:24;;;;;;;;;;;19.20;78.40;;;;;;4493340;31;19984;-67
2022/10/29 07:21:50;;;;;;;;;;;19.20;78.40;;;;;;4493016;31;20423;-67
2022/10/29 07:24:16;;;;;;;;;;;19.20;78.20;;;;;;4492448;31;20104;-68
2022/10/29 07:26:42;;;;;;;;;;;19.20;78.20;;;;;;4492820;31;20079;-67
2022/10/29 07:29:08;;;;;;;;;;;19.30;78.40;;;;;;4492749;31;20161;-67
2022/10/29 07:31:35;;;;;;;;;;;19.30;78.30;;;;;;4492789;31;20008;-67
2022/10/29 07:34:00;;;;;;;;;;;19.20;78.40;;;;;;4492765;31;20127;-67
2022/10/29 07:36:28;;;;;;;;;;;19.20;78.20;;;;;;4492528;31;20050;-68
2022/10/29 07:38:54;;;;;;;;;;;19.20;78.40;;;;;;4492711;31;19978;-67
2022/10/29 07:41:20;;;;;;;;;;;19.20;78.60;;;;;;4492684;31;20164;-67
2022/10/29 07:43:45;;;;;;;;;;;19.20;79.00;;;;;;4492698;31;20021;-68
2022/10/29 07:46:11;;;;;;;;;;;19.20;78.90;;;;;;4492708;31;20395;-67
2022/10/29 07:48:37;;;;;;;;;;;19.30;79.00;;;;;;4492629;31;19966;-67
2022/10/29 07:51:03;;;;;;;;;;;19.30;79.10;;;;;;4492518;31;20442;-67
2022/10/29 07:53:30;;;;;;;;;;;19.30;79.10;;;;;;4492468;32;19962;-67
2022/10/29 07:55:56;;;;;;;;;;;19.30;78.80;;;;;;4492644;32;19977;-67
2022/10/29 07:58:22;;;;;;;;;;;19.30;78.80;;;;;;4492573;32;19989;-67
2022/10/29 08:00:48;;;;;;;;;;;19.30;78.90;;;;;;4492279;32;19981;-67
2022/10/29 08:03:14;;;;;;;;;;;19.30;78.90;;;;;;4492548;32;19984;-67
2022/10/29 08:05:39;;;;;;;;;;;19.30;78.90;;;;;;4492472;32;19966;-67
2022/10/29 08:08:05;;;;;;;;;;;19.30;78.70;;;;;;4492462;32;19972;-68
2022/10/29 08:10:32;;;;;;;;;;;19.30;78.70;;;;;;4492093;32;20005;-66
2022/10/29 08:12:59;;;;;;;;;;;19.30;79.00;;;;;;4492664;32;19973;-67
2022/10/29 08:15:25;;;;;;;;;;;19.30;79.00;;;;;;4492448;32;20318;-67
2022/10/29 08:17:51;;;;;;;;;;;19.30;78.90;;;;;;4492417;32;20012;-67
2022/10/29 08:20:17;;;;;;;;;;;19.30;79.20;;;;;;4492146;32;20291;-68
2022/10/29 08:22:42;;;;;;;;;;;19.30;78.90;;;;;;4492361;32;20019;-67
2022/10/29 08:25:08;;;;;;;;;;;19.30;78.90;;;;;;4492378;32;20330;-68
2022/10/29 08:27:34;;;;;;;;;;;19.30;78.80;;;;;;4492093;32;19962;-69
2022/10/29 08:30:00;;;;;;;;;;;19.30;78.90;;;;;;4492146;32;20169;-68
2022/10/29 08:32:26;;;;;;;;;;;19.30;78.90;;;;;;4492320;32;19989;-70
2022/10/29 08:34:52;;;;;;;;;;;19.30;78.50;;;;;;4492192;32;19974;-70
2022/10/29 08:37:18;;;;;;;;;;;19.30;78.60;;;;;;4492065;32;20017;-70
2022/10/29 08:39:43;;;;;;;;;;;19.30;78.60;;;;;;4492267;32;20047;-70
2022/10/29 08:42:28;;;;;;;;;;;19.30;78.60;;;;;;4478201;32;20112;-70
2022/10/29 08:44:53;;;;;;;;;;;19.30;78.60;;;;;;4492225;32;19973;-70
2022/10/29 08:47:20;;;;;;;;;;;19.30;78.60;;;;;;4492218;31;20015;-70
2022/10/29 08:50:24;;;;;;;;;;;19.20;78.50;;;;;;4494572;31;19988;-69
2022/10/29 08:52:50;;;;;;;;;;;19.20;78.60;;;;;;4446164;32;20333;-70
2022/10/29 08:55:18;;;;;;;;;;;19.30;78.60;;;;;;4446083;32;20021;-70
2022/10/29 08:57:56;;;;;;;;;;;19.20;78.60;;;;;;4469349;31;19973;-70
2022/10/29 09:00:25;;;;;;;;;;;19.20;78.60;;;;;;4494768;31;20050;-70
2022/10/29 09:02:55;;;;;;;;;;;19.20;78.60;;;;;;4494931;31;20021;-70
2022/10/29 09:05:23;;;;;;;;;;;19.20;78.60;;;;;;4495173;31;20028;-70
2022/10/29 09:08:08;;;;;;;;;;;19.30;78.70;;;;;;4494854;31;19977;-70
2022/10/29 09:10:40;;;;;;;;;;;19.20;78.70;;;;;;4495011;31;20318;-70
2022/10/29 09:13:11;;;;;;;;;;;19.20;78.60;;;;;;4480375;31;20059;-70
2022/10/29 09:15:40;;;;;;;;;;;19.20;78.60;;;;;;4494746;31;19985;-70
2022/10/29 09:18:18;;;;;;;;;;;19.20;78.60;;;;;;4494666;31;19977;-70
2022/10/29 09:20:44;;;;;;;;;;;19.20;78.60;;;;;;4494638;31;19974;-70
2022/10/29 09:23:20;;;;;;;;;;;19.20;78.60;;;;;;4494826;31;19958;-70
2022/10/29 09:25:52;;;;;;;;;;;19.20;78.60;;;;;;4494957;31;19974;-70
2022/10/29 09:28:24;;;;;;;;;;;19.20;78.60;;;;;;4494256;31;19981;-70
2022/10/29 09:30:55;;;;;;;;;;;19.20;78.70;;;;;;4494495;31;20008;-70
2022/10/29 09:33:22;;;;;;;;;;;19.20;78.70;;;;;;4494887;31;20025;-70
2022/10/29 09:35:52;;;;;;;;;;;19.20;78.70;;;;;;4494283;31;19969;-69
2022/10/29 09:38:19;;;;;;;;;;;19.20;78.70;;;;;;4494412;31;19978;-70
2022/10/29 09:40:45;;;;;;;;;;;19.20;78.70;;;;;;4494132;31;20110;-70
2022/10/29 09:43:16;;;;;;;;;;;19.20;78.60;;;;;;4494084;31;20141;-70
2022/10/29 09:46:01;;;;;;;;;;;19.20;78.70;;;;;;4494319;31;19989;-70
2022/10/29 09:48:50;;;;;;;;;;;19.20;78.60;;;;;;4494552;31;19981;-70
2022/10/29 09:51:24;;;;;;;;;;;19.20;78.70;;;;;;4487962;31;20103;-70
2022/10/29 09:53:50;;;;;;;;;;;19.20;78.70;;;;;;4494206;31;20422;-71
2022/10/29 09:56:16;;;;;;;;;;;19.10;78.60;;;;;;4494421;31;19969;-70
2022/10/29 09:58:43;;;;;;;;;;;19.20;78.60;;;;;;4494565;31;20070;-70
2022/10/29 10:01:09;;;;;;;;;;;19.20;78.70;;;;;;4494106;31;19985;-70
2022/10/29 10:03:37;;;;;;;;;;;19.20;78.60;;;;;;4494040;31;20023;-70
2022/10/29 10:06:04;;;;;;;;;;;19.20;78.60;;;;;;4494047;31;19982;-70
2022/10/29 10:08:30;;;;;;;;;;;19.20;78.60;;;;;;4494082;31;20017;-70
2022/10/29 10:11:03;;;;;;;;;;;19.20;78.60;;;;;;4493841;31;19978;-70
2022/10/29 10:13:49;;;;;;;;;;;19.20;78.60;;;;;;4493699;31;20057;-70
2022/10/29 10:16:21;;;;;;;;;;;19.20;78.60;;;;;;4479289;31;19977;-70
2022/10/29 10:18:47;;;;;;;;;;;19.10;78.60;;;;;;4493951;31;20385;-70
2022/10/29 10:21:33;;;;;;;;;;;19.20;78.60;;;;;;4493770;31;19973;-71
2022/10/29 10:23:59;;;;;;;;;;;19.10;78.60;;;;;;4493407;31;19988;-70
2022/10/29 10:26:25;;;;;;;;;;;19.20;78.60;;;;;;4493739;31;19978;-70
2022/10/29 10:29:03;;;;;;;;;;;19.10;78.60;;;;;;4493918;31;19998;-70
2022/10/29 10:31:29;;;;;;;;;;;19.20;78.70;;;;;;4493609;31;20036;-69
2022/10/29 10:33:55;;;;;;;;;;;19.20;78.70;;;;;;4493801;31;19985;-70
2022/10/29 10:36:23;;;;;;;;;;;19.10;78.60;;;;;;4493528;31;20020;-70
2022/10/29 10:38:50;;;;;;;;;;;19.20;78.70;;;;;;4493555;31;19977;-70
2022/10/29 10:41:21;;;;;;;;;;;19.20;78.60;;;;;;4493356;31;19985;-70
2022/10/29 10:43:47;;;;;;;;;;;19.20;78.60;;;;;;4493551;31;19982;-70
2022/10/29 10:46:24;;;;;;;;;;;19.20;78.60;;;;;;4493153;31;20031;-70
2022/10/29 10:49:00;;;;;;;;;;;19.20;78.60;;;;;;4493459;31;20319;-70
2022/10/29 10:51:28;;;;;;;;;;;19.20;78.60;;;;;;4493052;31;19984;-70
2022/10/29 10:53:53;;;;;;;;;;;19.10;78.60;;;;;;4493170;31;19969;-70
2022/10/29 10:56:20;;;;;;;;;;;19.20;78.60;;;;;;4492980;31;20053;-70
2022/10/29 10:58:52;;;;;;;;;;;19.20;78.60;;;;;;4493481;31;19981;-69
2022/10/29 11:01:25;;;;;;;;;;;19.10;78.70;;;;;;4493484;31;19974;-70
2022/10/29 11:03:58;;;;;;;;;;;19.10;78.60;;;;;;4493642;31;19993;-70
2022/10/29 11:06:43;;;;;;;;;;;19.20;78.70;;;;;;4492798;31;19986;-70
2022/10/29 11:09:27;;;;;;;;;;;19.10;78.70;;;;;;4493113;31;19966;-70
2022/10/29 11:11:59;;;;;;;;;;;19.10;78.60;;;;;;4492663;31;20383;-69
2022/10/29 11:14:27;;;;;;;;;;;19.20;78.60;;;;;;4493001;31;19978;-70
2022/10/29 11:16:58;;;;;;;;;;;19.20;78.60;;;;;;4492780;31;19982;-70
2022/10/29 11:19:27;;;;;;;;;;;19.20;78.70;;;;;;4492911;31;20035;-70
2022/10/29 11:22:02;;;;;;;;;;;19.10;78.50;;;;;;4492766;31;20387;-71
2022/10/29 11:24:37;;;;;;;;;;;19.20;78.80;;;;;;4492728;31;19985;-70
2022/10/29 11:27:22;;;;;;;;;;;19.20;78.80;;;;;;4492931;31;19977;-70
2022/10/29 11:29:55;;;;;;;;;;;19.20;78.90;;;;;;4493008;31;19974;-70
2022/10/29 11:32:20;;;;;;;;;;;19.20;78.90;;;;;;4492797;31;20406;-70
2022/10/29 11:34:52;;;;;;;;;;;19.20;78.90;;;;;;4492774;31;20425;-70
2022/10/29 11:37:40;;;;;;;;;;;19.20;79.00;;;;;;4493145;31;20414;-70
2022/10/29 11:40:18;;;;;;;;;;;19.20;79.10;;;;;;4492887;31;20111;-70
2022/10/29 11:42:44;;;;;;;;;;;19.20;79.30;;;;;;4492669;31;20488;-70
2022/10/29 11:45:12;;;;;;;;;;;19.20;79.20;;;;;;4492664;31;19978;-70
2022/10/29 11:48:02;;;;;;;;;;;19.20;79.40;;;;;;4492746;31;19986;-70
2022/10/29 11:50:40;;;;;;;;;;;19.20;79.50;;;;;;4492752;31;19982;-71
2022/10/29 11:53:25;;;;;;;;;;;19.20;79.40;;;;;;4492715;31;20055;-70
2022/10/29 11:56:10;;;;;;;;;;;19.20;79.50;;;;;;4492888;32;19977;-71
2022/10/29 11:59:00;;;;;;;;;;;19.20;79.50;;;;;;4492881;32;19981;-71
2022/10/29 12:01:25;;;;;;;;;;;19.20;79.40;;;;;;4493043;32;20063;-71
2022/10/29 12:03:57;;;;;;;;;;;19.20;79.50;;;;;;4492392;32;20013;-70
2022/10/29 12:06:31;;;;;;;;;;;19.20;79.40;;;;;;4492555;32;19985;-67
2022/10/29 12:09:04;;;;;;;;;;;19.30;79.40;;;;;;4492762;32;20120;-66
2022/10/29 12:11:40;;;;;;;;;;;19.20;79.30;;;;;;4492569;32;19974;-72
2022/10/29 12:14:28;;;;;;;;;;;19.30;79.20;;;;;;4492258;32;19977;-69
2022/10/29 12:17:15;;;;;;;;;;;19.20;79.10;;;;;;4492481;32;20303;-70
2022/10/29 12:19:49;;;;;;;;;;;19.30;79.20;;;;;;4492801;32;20371;-70
2022/10/29 12:22:23;;;;;;;;;;;19.30;79.20;;;;;;4492658;31;20377;-70
2022/10/29 12:25:06;;;;;;;;;;;19.30;79.20;;;;;;4494630;31;20058;-70
2022/10/29 12:27:32;;;;;;;;;;;19.30;79.20;;;;;;4495495;31;20102;-70
2022/10/29 12:30:00;;;;;;;;;;;19.30;79.20;;;;;;4495621;31;19982;-71
2022/10/29 12:32:30;;;;;;;;;;;19.30;79.20;;;;;;4495411;31;20016;-70
2022/10/29 12:35:14;;;;;;;;;;;19.30;79.20;;;;;;4495976;31;19989;-70
2022/10/29 12:37:54;;;;;;;;;;;19.30;79.30;;;;;;4495948;31;19973;-69
2022/10/29 12:40:25;;;;;;;;;;;19.20;79.10;;;;;;4496088;31;19989;-70
2022/10/29 12:42:51;;;;;;;;;;;19.30;79.10;;;;;;4495033;31;19977;-70
2022/10/29 12:45:29;;;;;;;;;;;19.30;79.10;;;;;;4495170;31;20116;-69
2022/10/29 12:48:14;;;;;;;;;;;19.30;79.10;;;;;;4495214;31;19974;-69
2022/10/29 12:50:49;;;;;;;;;;;19.20;79.00;;;;;;4495375;31;20120;-69
2022/10/29 12:53:25;;;;;;;;;;;19.20;79.00;;;;;;4495429;31;20036;-70
2022/10/29 12:55:51;;;;;;;;;;;19.30;79.10;;;;;;4494925;31;20071;-70
2022/10/29 12:58:36;;;;;;;;;;;19.20;79.10;;;;;;4495290;31;20142;-70
2022/10/29 13:01:01;;;;;;;;;;;19.20;79.10;;;;;;4494742;31;19981;-70
2022/10/29 13:04:01;;;;;;;;;;;19.20;79.10;;;;;;4495008;31;19980;-70
2022/10/29 13:06:41;;;;;;;;;;;19.20;79.00;;;;;;4468559;31;20021;-70
2022/10/29 13:09:13;;;;;;;;;;;19.30;79.00;;;;;;4494442;31;19974;-66
2022/10/29 13:11:45;;;;;;;;;;;19.30;79.00;;;;;;4494862;31;19983;-70
2022/10/29 13:14:11;;;;;;;;;;;19.30;78.90;;;;;;4494982;31;19988;-69
2022/10/29 13:16:37;;;;;;;;;;;19.30;78.90;;;;;;4494503;31;19969;-69
2022/10/29 13:19:06;;;;;;;;;;;19.30;78.90;;;;;;4494752;31;19985;-69
2022/10/29 13:21:50;;;;;;;;;;;19.20;78.90;;;;;;4494772;31;20285;-70
2022/10/29 13:24:16;;;;;;;;;;;19.20;78.90;;;;;;4494449;31;20405;-70
2022/10/29 13:26:54;;;;;;;;;;;19.30;78.90;;;;;;4494728;31;20023;-70
2022/10/29 13:29:39;;;;;;;;;;;19.30;79.00;;;;;;4494682;31;20016;-71
2022/10/29 13:32:05;;;;;;;;;;;19.20;78.90;;;;;;4494564;31;20112;-70
2022/10/29 13:34:50;;;;;;;;;;;19.30;79.10;;;;;;4494281;31;19965;-70
2022/10/29 13:37:36;;;;;;;;;;;19.20;79.00;;;;;;4494426;31;20323;-70
2022/10/29 13:40:30;;;;;;;;;;;19.30;79.20;;;;;;4494388;31;19977;-70
2022/10/29 13:42:58;;;;;;;;;;;19.30;79.30;;;;;;4451145;31;20435;-70
2022/10/29 13:45:24;;;;;;;;;;;19.30;79.20;;;;;;4494603;31;20194;-70
2022/10/29 13:47:50;;;;;;;;;;;19.30;79.20;;;;;;4494620;31;20397;-70
2022/10/29 13:50:16;;;;;;;;;;;19.20;79.30;;;;;;4494225;31;20043;-71
2022/10/29 13:52:43;;;;;;;;;;;19.30;79.30;;;;;;4494262;31;20009;-70
2022/10/29 13:55:12;;;;;;;;;;;19.30;79.40;;;;;;4494430;31;19985;-70
2022/10/29 13:57:49;;;;;;;;;;;19.30;79.40;;;;;;4494370;31;20103;-71
2022/10/29 14:00:19;;;;;;;;;;;19.30;79.40;;;;;;4494184;31;20054;-70
2022/10/29 14:02:51;;;;;;;;;;;19.30;79.20;;;;;;4494184;31;20109;-70
2022/10/29 14:05:27;;;;;;;;;;;19.30;79.30;;;;;;4494134;31;19985;-70
2022/10/29 14:07:55;;;;;;;;;;;19.30;79.40;;;;;;4493772;31;20023;-70
2022/10/29 14:10:27;;;;;;;;;;;19.30;79.50;;;;;;4494038;31;20521;-71
2022/10/29 14:12:56;;;;;;;;;;;19.30;79.40;;;;;;4494335;31;20380;-70
2022/10/29 14:15:22;;;;;;;;;;;19.30;79.70;;;;;;4493919;31;20116;-70
2022/10/29 14:17:47;;;;;;;;;;;19.30;79.70;;;;;;4493705;31;19984;-70
2022/10/29 14:20:21;;;;;;;;;;;19.30;79.80;;;;;;4493884;31;19977;-70
2022/10/29 14:22:46;;;;;;;;;;;19.40;80.00;;;;;;4493331;31;20027;-70
2022/10/29 14:25:21;;;;;;;;;;;19.30;79.80;;;;;;4493515;31;20099;-70
2022/10/29 14:28:06;;;;;;;;;;;19.40;79.90;;;;;;4493780;31;20125;-69